Capewater — PBPQ — position and weather

sailwx.info

Track history (hours):
 
Tides and Currents Weather Stations Pressure Air Temp Water Temp Dewpoint Dewpoint Depression Visibility Wind Speed Wind Dir Waves Ship Positions

Capewater

Last reported at 2016-May-04 22:33 UTC. Time now 2016-May-04 23:11 UTC.
Position N 51°53' E 004°16'.

Length 100 m; draft 5.3 m.

Type: Tanker. MMSI: 246346000.

Date/timePositionNaut miles runAvg speedWind from/ knotsBaromVisibWave heightAir tempDewpointWater temp
2016-May-04 22:33N 51°53' E 004°16'0 0.0
2016-May-04 21:33N 51°53' E 004°16'0 0.0
2016-May-04 19:18N 51°53' E 004°16'0 0.0
2016-May-04 18:27N 51°53' E 004°16'0 0.0
2016-May-04 17:21N 51°53' E 004°16'0 0.0
2016-May-04 16:33N 51°53' E 004°16'0 0.0
2016-May-04 15:30N 51°53' E 004°16'0 0.0
2016-May-04 14:24N 51°53' E 004°16'0 0.0
2016-May-04 13:33N 51°53' E 004°16'0 0.0
2016-May-04 12:06N 51°53' E 004°16'0 0.0
2016-May-04 11:21N 51°53' E 004°16'0 0.0
2016-May-04 10:33N 51°53' E 004°16'0 0.0
2016-May-04 09:27N 51°53' E 004°16'0 0.0
2016-May-04 08:33N 51°53' E 004°16'0 0.0
2016-May-04 07:33N 51°53' E 004°16'0 0.0
2016-May-04 06:33N 51°53' E 004°16'0 0.0
2016-May-04 05:33N 51°53' E 004°16'0 0.0
2016-May-04 04:33N 51°53' E 004°16'0 0.0
2016-May-04 03:27N 51°53' E 004°16'0 0.0
2016-May-04 02:33N 51°53' E 004°16'0 0.0
2016-May-04 01:21N 51°53' E 004°16'0 0.0
2016-May-04 00:33N 51°53' E 004°16'1 0.8
2016-May-03 23:33N 51°53' E 004°17'6 6.0
2016-May-03 22:33N 51°53' E 004°27'0 0.4
2016-May-03 21:33N 51°53' E 004°28'0 0.0
2016-May-03 20:33N 51°53' E 004°28'0 0.0
2016-May-03 19:33N 51°53' E 004°28'0 0.0
2016-May-03 18:33N 51°53' E 004°28'0 0.0
2016-May-03 17:33N 51°53' E 004°28'0 0.0
2016-May-03 16:33N 51°53' E 004°28'0 0.0
2016-May-03 15:33N 51°53' E 004°27'0 0.0
2016-May-03 14:33N 51°53' E 004°27'0 0.0
2016-May-03 13:33N 51°53' E 004°28'0 0.0
2016-May-03 12:33N 51°53' E 004°28'0 0.0
2016-May-03 11:33N 51°53' E 004°28'0 0.0
2016-May-03 10:30N 51°53' E 004°27'0 0.0
2016-May-03 09:33N 51°53' E 004°28'0 0.0
2016-May-03 08:33N 51°53' E 004°28'0 0.0
2016-May-03 07:33N 51°53' E 004°28'0 0.0
2016-May-03 06:33N 51°53' E 004°28'0 0.0
2016-May-03 05:33N 51°53' E 004°28'0 0.0
2016-May-03 04:33N 51°53' E 004°27'0 0.0
2016-May-03 03:33N 51°53' E 004°27'0 0.0
2016-May-03 02:33N 51°53' E 004°27'0 0.0
2016-May-03 01:33N 51°53' E 004°28'0 0.0
2016-May-03 00:33N 51°53' E 004°28'0 0.0
2016-May-02 23:33N 51°53' E 004°28'0 0.0
2016-May-02 22:30N 51°53' E 004°28'0 0.0
2016-May-02 21:33N 51°53' E 004°28'0 0.0
2016-May-02 20:33N 51°53' E 004°28'0 0.4
2016-May-02 19:33N 51°54' E 004°27'7 7.0
2016-May-02 18:33N 51°54' E 004°16'1010.2
2016-May-02 17:33N 51°60' E 004°01'9 8.9
2016-May-02 16:33N 51°58' E 003°47'1 1.1
2016-May-02 15:27N 51°57' E 003°46'0 0.0
2016-May-02 14:33N 51°57' E 003°46'0 0.0
2016-May-02 13:33N 51°57' E 003°46'0 0.0
2016-May-02 12:33N 51°57' E 003°46'0 0.0
2016-May-02 11:33N 51°57' E 003°46'0 0.0
2016-May-02 10:33N 51°57' E 003°46'0 0.0
2016-May-02 09:33N 51°57' E 003°46'0 0.0
2016-May-02 08:33N 51°57' E 003°46'0 0.0
2016-May-02 07:30N 51°57' E 003°46'0 0.0
2016-May-02 06:33N 51°57' E 003°46'0 0.1
2016-May-02 05:33N 51°57' E 003°45'0 0.0
2016-May-02 04:33N 51°57' E 003°46'0 0.1
2016-May-02 03:33N 51°57' E 003°46'0 0.0
2016-May-02 02:30N 51°57' E 003°46'0 0.0
2016-May-02 01:33N 51°57' E 003°46'0 0.0
2016-May-02 00:33N 51°57' E 003°46'0 0.0
2016-May-01 23:33N 51°57' E 003°46'0 0.0
2016-May-01 22:33N 51°57' E 003°46'0 0.0
2016-May-01 21:33N 51°57' E 003°46'7 6.6
2016-May-01 20:33N 51°57' E 003°35'1312.7
2016-May-01 19:33N 51°54' E 003°15'1211.8
2016-May-01 18:33N 51°50' E 002°57'1110.6
2016-May-01 17:33N 51°46' E 002°41'10 9.9
2016-May-01 16:33N 51°40' E 002°29'9 9.5
2016-May-01 15:33N 51°32' E 002°19'9 9.1
2016-May-01 14:33N 51°24' E 002°12'10 9.9
2016-May-01 13:33N 51°15' E 002°05'9 9.1
2016-May-01 12:34N 51°10' E 001°53'1010.4
2016-May-01 11:33N 51°04' E 001°40'1312.5
2016-May-01 10:33N 50°53' E 001°28'5012.1
2016-May-01 06:22N 50°22' E 000°26'1112.9
2016-May-01 05:34N 50°18' E 000°11'1212.0
2016-May-01 04:34N 50°10' W 000°02'1313.4
2016-May-01 03:34N 49°57' W 000°09'1312.8
2016-May-01 02:34N 49°44' W 000°12'1312.8
2016-May-01 01:34N 49°33' W 000°02'9 9.0
2016-May-01 00:34N 49°29' E 000°10'3 2.4
2016-Apr-30 23:31N 49°28' E 000°14'0 0.0
2016-Apr-30 22:31N 49°28' E 000°14'0 0.0
2016-Apr-30 21:31N 49°28' E 000°14'0 0.0
2016-Apr-30 20:31N 49°28' E 000°14'0 0.0
2016-Apr-30 19:31N 49°28' E 000°14'0 0.0
2016-Apr-30 18:31N 49°28' E 000°14'0 0.0
2016-Apr-30 17:31N 49°28' E 000°14'0 0.0
2016-Apr-30 16:31N 49°28' E 000°14'0 0.0
2016-Apr-30 15:31N 49°28' E 000°14'0 0.0
2016-Apr-30 14:31N 49°28' E 000°14'0 0.0
2016-Apr-30 13:31N 49°28' E 000°14'0 0.0
2016-Apr-30 12:31N 49°28' E 000°14'0 0.0
2016-Apr-30 11:31N 49°28' E 000°14'0 0.0
2016-Apr-30 10:31N 49°28' E 000°14'0 0.0
2016-Apr-30 09:28N 49°28' E 000°14'0 0.0
2016-Apr-30 08:31N 49°28' E 000°14'0 0.0
2016-Apr-30 07:31N 49°28' E 000°14'3 2.7
2016-Apr-30 06:33N 49°29' E 000°10'5 5.3
2016-Apr-30 05:34N 49°30' E 000°02'3 3.2
2016-Apr-30 04:31N 49°29' W 000°03'0 0.1
2016-Apr-30 03:31N 49°29' W 000°03'0 0.0
2016-Apr-30 02:31N 49°29' W 000°03'0 0.0
2016-Apr-30 01:31N 49°29' W 000°03'0 0.0
2016-Apr-30 00:31N 49°29' W 000°03'0 0.0
2016-Apr-29 23:31N 49°29' W 000°03'0 0.0
2016-Apr-29 22:31N 49°29' W 000°03'0 0.1
2016-Apr-29 21:31N 49°29' W 000°03'0 0.0
2016-Apr-29 20:31N 49°29' W 000°03'0 0.0
2016-Apr-29 19:31N 49°29' W 000°03'0 0.1
2016-Apr-29 18:31N 49°29' W 000°03'0 0.1
2016-Apr-29 17:31N 49°29' W 000°03'0 0.0
2016-Apr-29 16:31N 49°29' W 000°03'0 0.0
2016-Apr-29 15:31N 49°29' W 000°03'0 0.4
2016-Apr-29 14:33N 49°29' W 000°02'9 8.9
2016-Apr-29 13:33N 49°36' W 000°11'1110.9
2016-Apr-29 12:33N 49°47' W 000°07'1111.1
2016-Apr-29 11:33N 49°58' W 000°05'1111.3
2016-Apr-29 10:33N 50°09' W 000°04'1211.4
2016-Apr-29 09:32N 50°20' W 000°03'9 9.4
2016-Apr-29 08:33N 50°28' E 000°04'1211.4
2016-Apr-29 07:33N 50°32' E 000°22'3110.4
2016-Apr-29 04:33N 50°48' E 001°04'9 8.7
2016-Apr-29 03:33N 50°53' E 001°15'8 8.1
2016-Apr-29 02:33N 50°59' E 001°24'9 8.6
2016-Apr-29 01:33N 51°05' E 001°33'9 9.3
2016-Apr-29 00:33N 51°11' E 001°44'1110.9
2016-Apr-28 23:33N 51°20' E 001°54'1111.2
2016-Apr-28 22:33N 51°30' E 002°03'1110.5
2016-Apr-28 21:34N 51°38' E 002°14'57 9.5
2016-Apr-28 15:32N 52°04' E 003°37'1111.1
2016-Apr-28 14:33N 52°02' E 003°54'1313.1
2016-Apr-28 13:33N 51°56' E 004°13'5 4.3
2016-Apr-28 12:30N 51°53' E 004°18'0 0.0
2016-Apr-28 11:33N 51°53' E 004°18'0 0.0
2016-Apr-28 10:27N 51°53' E 004°18'0 0.0
2016-Apr-28 09:33N 51°53' E 004°18'0 0.0
2016-Apr-28 08:24N 51°53' E 004°18'0 0.0
2016-Apr-28 07:33N 51°53' E 004°18'0 0.0
2016-Apr-28 06:33N 51°53' E 004°18'0 0.0
2016-Apr-28 05:33N 51°53' E 004°18'0 0.0
2016-Apr-28 04:33N 51°53' E 004°18'0 0.0
2016-Apr-28 03:33N 51°53' E 004°18'0 0.0
2016-Apr-28 02:33N 51°53' E 004°18'0 0.0
2016-Apr-28 01:33N 51°53' E 004°18'0 0.0
2016-Apr-28 00:33N 51°53' E 004°18'0 0.0
2016-Apr-27 23:27N 51°53' E 004°18'0 0.0
2016-Apr-27 22:33N 51°53' E 004°18'0 0.0
2016-Apr-27 21:33N 51°53' E 004°18'0 0.0
2016-Apr-27 19:21N 51°53' E 004°18'0 0.0
2016-Apr-27 18:33N 51°53' E 004°18'0 0.0
2016-Apr-27 17:33N 51°53' E 004°18'0 0.0
2016-Apr-27 16:33N 51°53' E 004°18'1 1.2
2016-Apr-27 15:33N 51°54' E 004°17'1111.2
2016-Apr-27 14:33N 51°60' E 004°02'9 8.6
2016-Apr-27 13:33N 52°00' E 003°48'7 6.9
2016-Apr-27 12:33N 52°07' E 003°46'8 8.0
2016-Apr-27 11:33N 52°14' E 003°40'1 0.6
2016-Apr-27 10:32N 52°14' E 003°39'2 1.7
2016-Apr-27 09:33N 52°13' E 003°41'1 1.0
2016-Apr-27 08:32N 52°12' E 003°42'4 4.2
2016-Apr-27 07:31N 52°16' E 003°38'1 0.2
2016-Apr-27 04:13N 52°16' E 003°37'1 2.0
2016-Apr-27 03:31N 52°15' E 003°38'2 1.7
2016-Apr-27 02:30N 52°13' E 003°39'1 0.6
2016-Apr-27 01:32N 52°14' E 003°38'3 0.8
2016-Apr-26 21:32N 52°17' E 003°37'2 1.9
2016-Apr-26 20:33N 52°16' E 003°39'2 2.3
2016-Apr-26 19:33N 52°14' E 003°41'2 2.2
2016-Apr-26 18:33N 52°12' E 003°44'4 4.0
2016-Apr-26 17:32N 52°15' E 003°40'5 4.7
2016-Apr-26 16:33N 52°19' E 003°34'2 1.6
2016-Apr-26 15:33N 52°20' E 003°33'6 1.0
2016-Apr-26 09:33N 52°15' E 003°38'2 1.9
2016-Apr-26 08:33N 52°14' E 003°41'2 2.2
2016-Apr-26 07:33N 52°13' E 003°44'6 6.3
2016-Apr-26 06:32N 52°19' E 003°48'10 9.8
2016-Apr-26 05:30N 52°29' E 003°52'73 9.1
2016-Apr-25 21:32N 53°31' E 004°53'9 8.9
2016-Apr-25 20:33N 53°35' E 005°06'9 8.6
2016-Apr-25 19:33N 53°37' E 005°20'9 9.2
2016-Apr-25 18:33N 53°40' E 005°35'1010.5
2016-Apr-25 17:33N 53°43' E 005°52'1111.4
2016-Apr-25 16:33N 53°47' E 006°10'1211.5
2016-Apr-25 15:33N 53°50' E 006°29'1111.0
2016-Apr-25 14:33N 53°53' E 006°47'1110.5
2016-Apr-25 13:33N 53°56' E 007°04'7 7.5
2016-Apr-25 12:33N 53°58' E 007°17'9 9.3
2016-Apr-25 11:33N 54°00' E 007°32'9 9.5
2016-Apr-25 10:33N 54°02' E 007°48'10 9.8
2016-Apr-25 09:33N 54°01' E 008°05'9 9.0
2016-Apr-25 08:33N 53°60' E 008°20'1313.1
2016-Apr-25 07:34N 53°55' E 008°41'1312.7
2016-Apr-25 06:33N 53°52' E 009°01'6 5.6
2016-Apr-25 05:33N 53°54' E 009°10'1 0.6
2016-Apr-25 04:33N 53°55' E 009°10'0 0.0
2016-Apr-25 03:33N 53°55' E 009°10'0 0.0
2016-Apr-25 02:33N 53°55' E 009°10'0 0.0
2016-Apr-25 01:24N 53°55' E 009°10'0 0.0
2016-Apr-24 23:33N 53°55' E 009°10'  
Track history (hours):
 
Tides and Currents Weather Stations Pressure Air Temp Water Temp Dewpoint Dewpoint Depression Visibility Wind Speed Wind Dir Waves Ship Positions

Capewater

Last reported at 2016-May-04 22:33 UTC. Time now 2016-May-04 23:11 UTC.
Position N 51°53' E 004°16'.

Length 100 m; draft 5.3 m.

Type: Tanker. MMSI: 246346000.

Date/timePositionNaut miles runAvg speedWind from/ knotsBaromVisibWave heightAir tempDewpointWater temp
2016-May-04 22:33N 51°53' E 004°16'0 0.0
2016-May-04 21:33N 51°53' E 004°16'0 0.0
2016-May-04 19:18N 51°53' E 004°16'0 0.0
2016-May-04 18:27N 51°53' E 004°16'0 0.0
2016-May-04 17:21N 51°53' E 004°16'0 0.0
2016-May-04 16:33N 51°53' E 004°16'0 0.0
2016-May-04 15:30N 51°53' E 004°16'0 0.0
2016-May-04 14:24N 51°53' E 004°16'0 0.0
2016-May-04 13:33N 51°53' E 004°16'0 0.0
2016-May-04 12:06N 51°53' E 004°16'0 0.0
2016-May-04 11:21N 51°53' E 004°16'0 0.0
2016-May-04 10:33N 51°53' E 004°16'0 0.0
2016-May-04 09:27N 51°53' E 004°16'0 0.0
2016-May-04 08:33N 51°53' E 004°16'0 0.0
2016-May-04 07:33N 51°53' E 004°16'0 0.0
2016-May-04 06:33N 51°53' E 004°16'0 0.0
2016-May-04 05:33N 51°53' E 004°16'0 0.0
2016-May-04 04:33N 51°53' E 004°16'0 0.0
2016-May-04 03:27N 51°53' E 004°16'0 0.0
2016-May-04 02:33N 51°53' E 004°16'0 0.0
2016-May-04 01:21N 51°53' E 004°16'0 0.0
2016-May-04 00:33N 51°53' E 004°16'1 0.8
2016-May-03 23:33N 51°53' E 004°17'6 6.0
2016-May-03 22:33N 51°53' E 004°27'0 0.4
2016-May-03 21:33N 51°53' E 004°28'0 0.0
2016-May-03 20:33N 51°53' E 004°28'0 0.0
2016-May-03 19:33N 51°53' E 004°28'0 0.0
2016-May-03 18:33N 51°53' E 004°28'0 0.0
2016-May-03 17:33N 51°53' E 004°28'0 0.0
2016-May-03 16:33N 51°53' E 004°28'0 0.0
2016-May-03 15:33N 51°53' E 004°27'0 0.0
2016-May-03 14:33N 51°53' E 004°27'0 0.0
2016-May-03 13:33N 51°53' E 004°28'0 0.0
2016-May-03 12:33N 51°53' E 004°28'0 0.0
2016-May-03 11:33N 51°53' E 004°28'0 0.0
2016-May-03 10:30N 51°53' E 004°27'0 0.0
2016-May-03 09:33N 51°53' E 004°28'0 0.0
2016-May-03 08:33N 51°53' E 004°28'0 0.0
2016-May-03 07:33N 51°53' E 004°28'0 0.0
2016-May-03 06:33N 51°53' E 004°28'0 0.0
2016-May-03 05:33N 51°53' E 004°28'0 0.0
2016-May-03 04:33N 51°53' E 004°27'0 0.0
2016-May-03 03:33N 51°53' E 004°27'0 0.0
2016-May-03 02:33N 51°53' E 004°27'0 0.0
2016-May-03 01:33N 51°53' E 004°28'0 0.0
2016-May-03 00:33N 51°53' E 004°28'0 0.0
2016-May-02 23:33N 51°53' E 004°28'0 0.0
2016-May-02 22:30N 51°53' E 004°28'0 0.0
2016-May-02 21:33N 51°53' E 004°28'0 0.0
2016-May-02 20:33N 51°53' E 004°28'0 0.4
2016-May-02 19:33N 51°54' E 004°27'7 7.0
2016-May-02 18:33N 51°54' E 004°16'1010.2
2016-May-02 17:33N 51°60' E 004°01'9 8.9
2016-May-02 16:33N 51°58' E 003°47'1 1.1
2016-May-02 15:27N 51°57' E 003°46'0 0.0
2016-May-02 14:33N 51°57' E 003°46'0 0.0
2016-May-02 13:33N 51°57' E 003°46'0 0.0
2016-May-02 12:33N 51°57' E 003°46'0 0.0
2016-May-02 11:33N 51°57' E 003°46'0 0.0
2016-May-02 10:33N 51°57' E 003°46'0 0.0
2016-May-02 09:33N 51°57' E 003°46'0 0.0
2016-May-02 08:33N 51°57' E 003°46'0 0.0
2016-May-02 07:30N 51°57' E 003°46'0 0.0
2016-May-02 06:33N 51°57' E 003°46'0 0.1
2016-May-02 05:33N 51°57' E 003°45'0 0.0
2016-May-02 04:33N 51°57' E 003°46'0 0.1
2016-May-02 03:33N 51°57' E 003°46'0 0.0
2016-May-02 02:30N 51°57' E 003°46'0 0.0
2016-May-02 01:33N 51°57' E 003°46'0 0.0
2016-May-02 00:33N 51°57' E 003°46'0 0.0
2016-May-01 23:33N 51°57' E 003°46'0 0.0
2016-May-01 22:33N 51°57' E 003°46'0 0.0
2016-May-01 21:33N 51°57' E 003°46'7 6.6
2016-May-01 20:33N 51°57' E 003°35'1312.7
2016-May-01 19:33N 51°54' E 003°15'1211.8
2016-May-01 18:33N 51°50' E 002°57'1110.6
2016-May-01 17:33N 51°46' E 002°41'10 9.9
2016-May-01 16:33N 51°40' E 002°29'9 9.5
2016-May-01 15:33N 51°32' E 002°19'9 9.1
2016-May-01 14:33N 51°24' E 002°12'10 9.9
2016-May-01 13:33N 51°15' E 002°05'9 9.1
2016-May-01 12:34N 51°10' E 001°53'1010.4
2016-May-01 11:33N 51°04' E 001°40'1312.5
2016-May-01 10:33N 50°53' E 001°28'5012.1
2016-May-01 06:22N 50°22' E 000°26'1112.9
2016-May-01 05:34N 50°18' E 000°11'1212.0
2016-May-01 04:34N 50°10' W 000°02'1313.4
2016-May-01 03:34N 49°57' W 000°09'1312.8
2016-May-01 02:34N 49°44' W 000°12'1312.8
2016-May-01 01:34N 49°33' W 000°02'9 9.0
2016-May-01 00:34N 49°29' E 000°10'3 2.4
2016-Apr-30 23:31N 49°28' E 000°14'0 0.0
2016-Apr-30 22:31N 49°28' E 000°14'0 0.0
2016-Apr-30 21:31N 49°28' E 000°14'0 0.0
2016-Apr-30 20:31N 49°28' E 000°14'0 0.0
2016-Apr-30 19:31N 49°28' E 000°14'0 0.0
2016-Apr-30 18:31N 49°28' E 000°14'0 0.0
2016-Apr-30 17:31N 49°28' E 000°14'0 0.0
2016-Apr-30 16:31N 49°28' E 000°14'0 0.0
2016-Apr-30 15:31N 49°28' E 000°14'0 0.0
2016-Apr-30 14:31N 49°28' E 000°14'0 0.0
2016-Apr-30 13:31N 49°28' E 000°14'0 0.0
2016-Apr-30 12:31N 49°28' E 000°14'0 0.0
2016-Apr-30 11:31N 49°28' E 000°14'0 0.0
2016-Apr-30 10:31N 49°28' E 000°14'0 0.0
2016-Apr-30 09:28N 49°28' E 000°14'0 0.0
2016-Apr-30 08:31N 49°28' E 000°14'0 0.0
2016-Apr-30 07:31N 49°28' E 000°14'3 2.7
2016-Apr-30 06:33N 49°29' E 000°10'5 5.3
2016-Apr-30 05:34N 49°30' E 000°02'3 3.2
2016-Apr-30 04:31N 49°29' W 000°03'0 0.1
2016-Apr-30 03:31N 49°29' W 000°03'0 0.0
2016-Apr-30 02:31N 49°29' W 000°03'0 0.0
2016-Apr-30 01:31N 49°29' W 000°03'0 0.0
2016-Apr-30 00:31N 49°29' W 000°03'0 0.0
2016-Apr-29 23:31N 49°29' W 000°03'0 0.0
2016-Apr-29 22:31N 49°29' W 000°03'0 0.1
2016-Apr-29 21:31N 49°29' W 000°03'0 0.0
2016-Apr-29 20:31N 49°29' W 000°03'0 0.0
2016-Apr-29 19:31N 49°29' W 000°03'0 0.1
2016-Apr-29 18:31N 49°29' W 000°03'0 0.1
2016-Apr-29 17:31N 49°29' W 000°03'0 0.0
2016-Apr-29 16:31N 49°29' W 000°03'0 0.0
2016-Apr-29 15:31N 49°29' W 000°03'0 0.4
2016-Apr-29 14:33N 49°29' W 000°02'9 8.9
2016-Apr-29 13:33N 49°36' W 000°11'1110.9
2016-Apr-29 12:33N 49°47' W 000°07'1111.1
2016-Apr-29 11:33N 49°58' W 000°05'1111.3
2016-Apr-29 10:33N 50°09' W 000°04'1211.4
2016-Apr-29 09:32N 50°20' W 000°03'9 9.4
2016-Apr-29 08:33N 50°28' E 000°04'1211.4
2016-Apr-29 07:33N 50°32' E 000°22'3110.4
2016-Apr-29 04:33N 50°48' E 001°04'9 8.7
2016-Apr-29 03:33N 50°53' E 001°15'8 8.1
2016-Apr-29 02:33N 50°59' E 001°24'9 8.6
2016-Apr-29 01:33N 51°05' E 001°33'9 9.3
2016-Apr-29 00:33N 51°11' E 001°44'1110.9
2016-Apr-28 23:33N 51°20' E 001°54'1111.2
2016-Apr-28 22:33N 51°30' E 002°03'1110.5
2016-Apr-28 21:34N 51°38' E 002°14'57 9.5
2016-Apr-28 15:32N 52°04' E 003°37'1111.1
2016-Apr-28 14:33N 52°02' E 003°54'1313.1
2016-Apr-28 13:33N 51°56' E 004°13'5 4.3
2016-Apr-28 12:30N 51°53' E 004°18'0 0.0
2016-Apr-28 11:33N 51°53' E 004°18'0 0.0
2016-Apr-28 10:27N 51°53' E 004°18'0 0.0
2016-Apr-28 09:33N 51°53' E 004°18'0 0.0
2016-Apr-28 08:24N 51°53' E 004°18'0 0.0
2016-Apr-28 07:33N 51°53' E 004°18'0 0.0
2016-Apr-28 06:33N 51°53' E 004°18'0 0.0
2016-Apr-28 05:33N 51°53' E 004°18'0 0.0
2016-Apr-28 04:33N 51°53' E 004°18'0 0.0
2016-Apr-28 03:33N 51°53' E 004°18'0 0.0
2016-Apr-28 02:33N 51°53' E 004°18'0 0.0
2016-Apr-28 01:33N 51°53' E 004°18'0 0.0
2016-Apr-28 00:33N 51°53' E 004°18'0 0.0
2016-Apr-27 23:27N 51°53' E 004°18'0 0.0
2016-Apr-27 22:33N 51°53' E 004°18'0 0.0
2016-Apr-27 21:33N 51°53' E 004°18'0 0.0
2016-Apr-27 19:21N 51°53' E 004°18'0 0.0
2016-Apr-27 18:33N 51°53' E 004°18'0 0.0
2016-Apr-27 17:33N 51°53' E 004°18'0 0.0
2016-Apr-27 16:33N 51°53' E 004°18'1 1.2
2016-Apr-27 15:33N 51°54' E 004°17'1111.2
2016-Apr-27 14:33N 51°60' E 004°02'9 8.6
2016-Apr-27 13:33N 52°00' E 003°48'7 6.9
2016-Apr-27 12:33N 52°07' E 003°46'8 8.0
2016-Apr-27 11:33N 52°14' E 003°40'1 0.6
2016-Apr-27 10:32N 52°14' E 003°39'2 1.7
2016-Apr-27 09:33N 52°13' E 003°41'1 1.0
2016-Apr-27 08:32N 52°12' E 003°42'4 4.2
2016-Apr-27 07:31N 52°16' E 003°38'1 0.2
2016-Apr-27 04:13N 52°16' E 003°37'1 2.0
2016-Apr-27 03:31N 52°15' E 003°38'2 1.7
2016-Apr-27 02:30N 52°13' E 003°39'1 0.6
2016-Apr-27 01:32N 52°14' E 003°38'3 0.8
2016-Apr-26 21:32N 52°17' E 003°37'2 1.9
2016-Apr-26 20:33N 52°16' E 003°39'2 2.3
2016-Apr-26 19:33N 52°14' E 003°41'2 2.2
2016-Apr-26 18:33N 52°12' E 003°44'4 4.0
2016-Apr-26 17:32N 52°15' E 003°40'5 4.7
2016-Apr-26 16:33N 52°19' E 003°34'2 1.6
2016-Apr-26 15:33N 52°20' E 003°33'6 1.0
2016-Apr-26 09:33N 52°15' E 003°38'2 1.9
2016-Apr-26 08:33N 52°14' E 003°41'2 2.2
2016-Apr-26 07:33N 52°13' E 003°44'6 6.3
2016-Apr-26 06:32N 52°19' E 003°48'10 9.8
2016-Apr-26 05:30N 52°29' E 003°52'73 9.1
2016-Apr-25 21:32N 53°31' E 004°53'9 8.9
2016-Apr-25 20:33N 53°35' E 005°06'9 8.6
2016-Apr-25 19:33N 53°37' E 005°20'9 9.2
2016-Apr-25 18:33N 53°40' E 005°35'1010.5
2016-Apr-25 17:33N 53°43' E 005°52'1111.4
2016-Apr-25 16:33N 53°47' E 006°10'1211.5
2016-Apr-25 15:33N 53°50' E 006°29'1111.0
2016-Apr-25 14:33N 53°53' E 006°47'1110.5
2016-Apr-25 13:33N 53°56' E 007°04'7 7.5
2016-Apr-25 12:33N 53°58' E 007°17'9 9.3
2016-Apr-25 11:33N 54°00' E 007°32'9 9.5
2016-Apr-25 10:33N 54°02' E 007°48'10 9.8
2016-Apr-25 09:33N 54°01' E 008°05'9 9.0
2016-Apr-25 08:33N 53°60' E 008°20'1313.1
2016-Apr-25 07:34N 53°55' E 008°41'1312.7
2016-Apr-25 06:33N 53°52' E 009°01'6 5.6
2016-Apr-25 05:33N 53°54' E 009°10'1 0.6
2016-Apr-25 04:33N 53°55' E 009°10'0 0.0
2016-Apr-25 03:33N 53°55' E 009°10'0 0.0
2016-Apr-25 02:33N 53°55' E 009°10'0 0.0
2016-Apr-25 01:24N 53°55' E 009°10'0 0.0
2016-Apr-24 23:33N 53°55' E 009°10'  

Dump ship's entire track history